Time;durP1;ratioP1;P1;durP2;ratioP2;P2;SDS_P1;SDS_P2;PMS_P1;PMS_P2;Temp;Humidity;BMP_temperature;BMP_pressure;BME280_temperature;BME280_humidity;BME280_pressure;Samples;Min_cycle;Max_cycle;Signal;HPM_P1;HPM_P2
2023/05/19 00:03:53;;;;;;;3.80;0.90;;;10.00;99.90;;;;;;10206602;29;20302;-86
2023/05/19 00:09:05;;;;;;;3.33;0.80;;;10.00;99.90;;;;;;10205394;29;20301;-86
2023/05/19 00:14:09;;;;;;;5.97;1.27;;;;;;;;;;10208329;29;20238;-85
2023/05/19 00:19:11;;;;;;;3.80;0.93;;;9.60;99.90;;;;;;10214079;29;20266;-86
2023/05/19 00:24:14;;;;;;;1.10;0.80;;;9.70;99.90;;;;;;10181024;29;20239;-86
2023/05/19 00:29:17;;;;;;;4.47;1.00;;;9.40;99.90;;;;;;10212936;29;20246;-86
2023/05/19 00:34:20;;;;;;;2.10;0.80;;;9.60;99.90;;;;;;10179936;29;20523;-86
2023/05/19 00:39:23;;;;;;;2.03;1.27;;;9.70;99.90;;;;;;10212637;29;20314;-86
2023/05/19 00:44:26;;;;;;;2.73;0.97;;;9.70;99.90;;;;;;10195318;29;20230;-86
2023/05/19 00:49:28;;;;;;;2.20;1.30;;;9.70;99.90;;;;;;10195542;29;20309;-86
2023/05/19 00:54:32;;;;;;;1.00;0.70;;;9.80;99.90;;;;;;10211345;29;20238;-86
2023/05/19 00:59:36;;;;;;;3.00;0.90;;;10.00;99.90;;;;;;10195401;29;20318;-86
2023/05/19 01:04:40;;;;;;;1.73;0.80;;;10.20;99.90;;;;;;10193718;29;20251;-86
2023/05/19 01:09:43;;;;;;;1.53;1.33;;;10.10;99.90;;;;;;10193737;29;20251;-86
2023/05/19 01:14:46;;;;;;;1.20;0.90;;;10.20;99.90;;;;;;10194426;29;20242;-86
2023/05/19 01:20:04;;;;;;;1.50;1.10;;;10.10;99.90;;;;;;10210828;29;20262;-86
2023/05/19 01:25:16;;;;;;;4.33;0.83;;;10.20;99.90;;;;;;10210355;29;20321;-86
2023/05/19 01:30:37;;;;;;;3.10;1.20;;;10.10;99.90;;;;;;10224484;28;20656;-85
2023/05/19 01:35:40;;;;;;;4.37;1.07;;;9.50;99.90;;;;;;10177669;29;20582;-86
2023/05/19 01:40:44;;;;;;;3.37;1.33;;;9.30;99.90;;;;;;10210471;29;20747;-85
2023/05/19 01:45:48;;;;;;;1.87;1.23;;;9.20;99.90;;;;;;10190141;29;20661;-85
2023/05/19 01:50:51;;;;;;;2.83;1.10;;;8.90;99.90;;;;;;10180321;29;20251;-86
2023/05/19 01:55:56;;;;;;;3.27;1.63;;;8.70;99.90;;;;;;10141469;29;20271;-86
2023/05/19 02:01:36;;;;;;;1.03;0.90;;;8.60;99.90;;;;;;10177714;29;20659;-85
2023/05/19 02:06:58;;;;;;;6.40;1.40;;;8.90;99.90;;;;;;10203922;29;20632;-85
2023/05/19 02:12:27;;;;;;;5.93;1.50;;;8.80;99.90;;;;;;10170898;29;20686;-86
2023/05/19 02:17:32;;;;;;;2.60;1.33;;;8.80;99.90;;;;;;10208707;29;20812;-86
2023/05/19 02:22:35;;;;;;;5.50;1.67;;;8.60;99.90;;;;;;10174139;29;20273;-85
2023/05/19 02:27:38;;;;;;;2.87;1.17;;;8.40;99.90;;;;;;10191435;29;20685;-86
2023/05/19 02:32:41;;;;;;;1.73;1.13;;;8.30;99.90;;;;;;10163624;29;20772;-86
2023/05/19 02:37:44;;;;;;;1.13;0.83;;;8.40;99.90;;;;;;10197203;29;20274;-85
2023/05/19 02:42:46;;;;;;;3.27;1.33;;;8.60;99.90;;;;;;10190930;29;20262;-86
2023/05/19 02:47:49;;;;;;;3.97;1.60;;;8.60;99.90;;;;;;10189819;29;20239;-85
2023/05/19 02:52:52;;;;;;;2.37;1.40;;;8.40;99.90;;;;;;10150757;29;20243;-86
2023/05/19 02:57:55;;;;;;;3.83;1.40;;;8.30;99.90;;;;;;10168093;29;20266;-85
2023/05/19 03:03:01;;;;;;;2.93;1.80;;;8.30;99.90;;;;;;10200974;29;20269;-86
2023/05/19 03:08:05;;;;;;;4.60;1.33;;;8.40;99.90;;;;;;10157092;29;20302;-86
2023/05/19 03:13:07;;;;;;;3.83;1.87;;;8.40;99.90;;;;;;10189064;29;20301;-86
2023/05/19 03:18:12;;;;;;;4.20;2.40;;;8.40;99.90;;;;;;10188984;29;20249;-85
2023/05/19 03:23:15;;;;;;;5.70;1.60;;;8.30;99.90;;;;;;10206531;29;20695;-86
2023/05/19 03:28:17;;;;;;;7.07;2.30;;;8.50;99.90;;;;;;10188946;29;20654;-83
2023/05/19 03:33:20;;;;;;;5.50;2.03;;;8.70;99.90;;;;;;10188959;29;20247;-83
2023/05/19 03:38:23;;;;;;;2.03;1.23;;;8.70;99.90;;;;;;10204131;29;20281;-83
2023/05/19 03:43:31;;;;;;;1.50;0.97;;;9.20;99.90;;;;;;10171604;29;20317;-83
2023/05/19 03:48:37;;;;;;;3.73;1.70;;;9.30;99.90;;;;;;10190497;29;20250;-83
2023/05/19 03:53:57;;;;;;;3.77;1.70;;;9.50;99.90;;;;;;10196943;29;20632;-83
2023/05/19 03:59:00;;;;;;;2.90;1.50;;;9.60;99.90;;;;;;10195296;29;20670;-83
2023/05/19 04:04:02;;;;;;;2.77;2.40;;;9.60;99.90;;;;;;10180182;29;20255;-83
2023/05/19 04:09:11;;;;;;;9.47;1.87;;;9.70;99.90;;;;;;10213493;29;20242;-83
2023/05/19 04:14:14;;;;;;;3.70;1.47;;;9.90;99.90;;;;;;10196279;29;20254;-83
2023/05/19 04:19:17;;;;;;;2.67;1.57;;;10.30;99.90;;;;;;10194520;29;20305;-83
2023/05/19 04:24:20;;;;;;;4.63;1.93;;;10.40;99.90;;;;;;10194801;29;20266;-83
2023/05/19 04:29:23;;;;;;;3.60;2.07;;;10.70;99.90;;;;;;10195897;29;20246;-83
2023/05/19 04:34:27;;;;;;;6.43;1.30;;;11.50;99.90;;;;;;10187549;29;20645;-83
2023/05/19 04:39:30;;;;;;;2.50;1.60;;;11.50;99.90;;;;;;10191582;29;20633;-83
2023/05/19 04:44:34;;;;;;;5.40;2.50;;;11.70;99.90;;;;;;10193033;29;20507;-83
2023/05/19 04:49:37;;;;;;;1.70;1.40;;;11.80;99.90;;;;;;10178727;29;20247;-83
2023/05/19 04:54:40;;;;;;;3.00;2.17;;;12.30;99.90;;;;;;10193367;29;20246;-83
2023/05/19 04:59:47;;;;;;;2.83;1.20;;;12.70;99.90;;;;;;10178103;29;20648;-83
2023/05/19 05:04:53;;;;;;;2.27;1.77;;;13.00;99.90;;;;;;10178377;29;20350;-83
2023/05/19 05:09:56;;;;;;;4.73;1.67;;;13.30;98.10;;;;;;10204032;29;20344;-83
2023/05/19 05:14:59;;;;;;;2.20;1.50;;;13.60;96.80;;;;;;10191784;29;20670;-83
2023/05/19 05:20:04;;;;;;;6.13;2.10;;;13.70;97.00;;;;;;10193089;29;20250;-82
2023/05/19 05:25:08;;;;;;;2.63;1.67;;;13.40;95.00;;;;;;10190596;29;20282;-83
2023/05/19 05:30:11;;;;;;;6.00;2.73;;;13.50;96.80;;;;;;10190456;29;20310;-83
2023/05/19 05:35:15;;;;;;;5.93;2.00;;;13.80;92.80;;;;;;10192768;29;20298;-82
2023/05/19 05:40:18;;;;;;;3.57;2.40;;;13.80;95.10;;;;;;10192418;29;20254;-82
2023/05/19 05:45:24;;;;;;;3.70;2.23;;;13.80;92.00;;;;;;10165586;29;20294;-85
2023/05/19 05:50:28;;;;;;;12.80;4.63;;;14.00;95.10;;;;;;10176691;29;20250;-85
2023/05/19 05:55:31;;;;;;;4.23;2.53;;;14.40;92.10;;;;;;10170496;29;20270;-85
2023/05/19 06:00:38;;;;;;;9.37;2.37;;;14.40;91.20;;;;;;10168087;29;20299;-85
2023/05/19 06:05:42;;;;;;;3.03;2.23;;;14.20;90.70;;;;;;10191016;29;20239;-85
2023/05/19 06:10:45;;;;;;;7.40;3.00;;;14.30;90.30;;;;;;10191189;29;20880;-85
2023/05/19 06:15:50;;;;;;;6.67;1.97;;;14.30;90.50;;;;;;10178701;29;20645;-84
2023/05/19 06:21:12;;;;;;;4.13;3.07;;;14.40;91.30;;;;;;10191301;29;20276;-85
2023/05/19 06:26:15;;;;;;;9.10;2.60;;;14.50;90.10;;;;;;10174007;29;20246;-85
2023/05/19 06:31:19;;;;;;;3.63;2.13;;;14.50;90.80;;;;;;10187371;29;20250;-85
2023/05/19 06:36:26;;;;;;;3.47;2.13;;;14.50;90.10;;;;;;10173349;29;20242;-85
2023/05/19 06:41:31;;;;;;;12.00;3.50;;;14.40;90.50;;;;;;10184677;29;20321;-85
2023/05/19 06:46:35;;;;;;;6.43;2.23;;;14.70;90.70;;;;;;10189770;29;20302;-84
2023/05/19 06:51:39;;;;;;;6.70;2.67;;;14.70;90.00;;;;;;10190894;29;20287;-85
2023/05/19 06:56:42;;;;;;;7.83;3.30;;;15.00;88.40;;;;;;10189019;29;20314;-84
2023/05/19 07:01:45;;;;;;;6.10;2.87;;;14.40;89.40;;;;;;10182264;29;20258;-85
2023/05/19 07:06:49;;;;;;;6.77;3.70;;;14.20;88.80;;;;;;10186518;29;20309;-84
2023/05/19 07:11:52;;;;;;;6.60;2.40;;;13.70;92.50;;;;;;10176720;29;20305;-84
2023/05/19 07:16:54;;;;;;;8.57;2.93;;;13.60;93.80;;;;;;10174240;29;20254;-85
2023/05/19 07:21:58;;;;;;;6.60;3.00;;;14.10;93.50;;;;;;10172006;29;20317;-84
2023/05/19 07:27:01;;;;;;;4.57;2.47;;;14.50;92.30;;;;;;10187192;29;20688;-84
2023/05/19 07:32:04;;;;;;;4.87;3.33;;;14.80;92.30;;;;;;10185544;29;20290;-84
2023/05/19 07:37:07;;;;;;;6.13;3.13;;;15.20;90.60;;;;;;10188274;29;20312;-81
2023/05/19 07:42:09;;;;;;;5.03;3.10;;;15.50;89.90;;;;;;10188923;29;20266;-84
2023/05/19 07:47:12;;;;;;;5.80;3.07;;;15.70;87.90;;;;;;10205384;29;20306;-84
2023/05/19 07:52:14;;;;;;;4.23;2.47;;;15.90;88.00;;;;;;10201931;29;20683;-85
2023/05/19 07:57:18;;;;;;;5.57;3.30;;;;;;;;;;10187739;29;20353;-84
2023/05/19 08:02:20;;;;;;;6.57;3.03;;;16.00;84.50;;;;;;10200369;29;20254;-84
2023/05/19 08:07:24;;;;;;;3.67;2.70;;;15.80;84.70;;;;;;10195182;29;20289;-85
2023/05/19 08:12:30;;;;;;;8.88;3.35;;;16.10;86.30;;;;;;10235965;28;20251;-84
2023/05/19 08:17:32;;;;;;;2.57;1.93;;;16.20;84.10;;;;;;10203464;29;20704;-83
2023/05/19 08:22:35;;;;;;;9.93;3.70;;;16.40;85.50;;;;;;10197078;29;20669;-84
2023/05/19 08:27:38;;;;;;;7.20;3.67;;;16.60;82.30;;;;;;10201434;29;20254;-84
2023/05/19 08:32:40;;;;;;;5.43;2.30;;;16.70;73.90;;;;;;10204347;29;20674;-84
2023/05/19 08:37:43;;;;;;;4.00;3.40;;;16.70;76.00;;;;;;10210417;29;20246;-84
2023/05/19 08:42:46;;;;;;;2.77;2.47;;;17.00;78.00;;;;;;10210419;29;20293;-84
2023/05/19 08:47:50;;;;;;;4.70;2.00;;;17.30;78.20;;;;;;10208918;29;20246;-85
2023/05/19 08:53:00;;;;;;;5.90;2.43;;;;;;;;;;10211108;29;20310;-85
2023/05/19 08:58:03;;;;;;;3.90;2.58;;;17.70;71.60;;;;;;10170770;29;20330;-84
2023/05/19 09:03:06;;;;;;;5.72;2.72;;;18.10;70.80;;;;;;10169919;29;20784;-83
2023/05/19 09:08:12;;;;;;;4.17;2.40;;;18.30;69.90;;;;;;10173097;29;20268;-82
2023/05/19 09:13:15;;;;;;;5.67;3.03;;;18.50;69.70;;;;;;10170039;29;20251;-86
2023/05/19 09:18:18;;;;;;;4.17;2.73;;;18.50;65.50;;;;;;10169266;29;20776;-85
2023/05/19 09:23:21;;;;;;;3.37;1.93;;;18.30;64.30;;;;;;10169975;29;20275;-83
2023/05/19 09:28:29;;;;;;;8.00;3.00;;;18.40;66.10;;;;;;10178961;29;20690;-83
2023/05/19 09:33:34;;;;;;;3.57;2.17;;;18.90;66.10;;;;;;10170141;29;20313;-83
2023/05/19 09:38:37;;;;;;;1.70;1.50;;;18.80;63.80;;;;;;10167496;29;20314;-83
2023/05/19 09:43:40;;;;;;;4.47;2.87;;;18.90;60.60;;;;;;10170214;29;20322;-81
2023/05/19 09:48:42;;;;;;;6.10;2.72;;;19.00;57.20;;;;;;10164959;29;20912;-81
2023/05/19 09:53:45;;;;;;;6.53;3.40;;;19.00;58.70;;;;;;10175104;29;20280;-81
2023/05/19 09:58:48;;;;;;;6.38;3.53;;;18.80;55.30;;;;;;10166914;29;20326;-81
2023/05/19 10:03:52;;;;;;;2.58;1.77;;;18.60;57.60;;;;;;10176407;29;20270;-82
2023/05/19 10:08:55;;;;;;;6.20;2.17;;;18.70;56.00;;;;;;10207128;29;20767;-82
2023/05/19 10:13:59;;;;;;;4.70;1.70;;;18.60;56.30;;;;;;10208323;29;20302;-81
2023/05/19 10:19:01;;;;;;;4.63;1.77;;;18.40;51.90;;;;;;10208070;29;20250;-81
2023/05/19 10:24:04;;;;;;;7.78;2.75;;;18.20;57.90;;;;;;10204824;29;20290;-81
2023/05/19 10:29:07;;;;;;;11.73;3.40;;;18.10;56.50;;;;;;10189748;29;20247;-82
2023/05/19 10:34:30;;;;;;;2.67;1.93;;;18.20;59.30;;;;;;10236845;28;20670;-82
2023/05/19 10:39:34;;;;;;;7.47;3.87;;;18.30;59.40;;;;;;10200335;28;20310;-82
2023/05/19 10:45:06;;;;;;;5.37;2.67;;;17.50;56.40;;;;;;10207942;29;20266;-81
2023/05/19 10:50:09;;;;;;;4.25;2.03;;;17.60;59.30;;;;;;10206689;29;20707;-82
2023/05/19 10:55:16;;;;;;;5.70;2.35;;;17.70;63.50;;;;;;10206218;29;20266;-82
2023/05/19 11:00:30;;;;;;;4.60;2.75;;;17.80;62.50;;;;;;10187464;29;20699;-82
2023/05/19 11:05:35;;;;;;;23.13;3.33;;;18.00;62.50;;;;;;10204524;29;20313;-83
2023/05/19 11:10:38;;;;;;;4.05;1.73;;;18.00;60.00;;;;;;10172583;29;20277;-82
2023/05/19 11:15:44;;;;;;;8.10;3.13;;;18.00;66.40;;;;;;10188480;29;20270;-82
2023/05/19 11:20:56;;;;;;;2.60;1.97;;;18.00;59.70;;;;;;10206477;29;20238;-82
2023/05/19 11:26:01;;;;;;;4.50;3.27;;;17.90;59.80;;;;;;10203747;29;20521;-82
2023/05/19 11:31:06;;;;;;;9.73;2.90;;;17.70;55.90;;;;;;10203623;29;20691;-82
2023/05/19 11:36:11;;;;;;;7.77;3.07;;;17.50;61.90;;;;;;10186826;29;20234;-83
2023/05/19 11:41:15;;;;;;;2.17;1.50;;;17.40;63.00;;;;;;10203159;29;20246;-83
2023/05/19 11:46:20;;;;;;;3.17;2.20;;;17.70;67.20;;;;;;10190574;29;20881;-83
2023/05/19 11:51:22;;;;;;;1.70;1.47;;;17.80;64.20;;;;;;10203083;29;20242;-83
2023/05/19 11:56:25;;;;;;;3.00;1.73;;;18.10;60.60;;;;;;10203722;29;20267;-82
2023/05/19 12:01:30;;;;;;;4.32;3.17;;;18.40;62.40;;;;;;10184101;29;20688;-82
2023/05/19 12:06:33;;;;;;;3.10;1.50;;;18.80;56.20;;;;;;10181922;29;20298;-82
2023/05/19 12:11:37;;;;;;;4.10;3.47;;;19.10;60.70;;;;;;10208727;29;20238;-81
2023/05/19 12:16:40;;;;;;;3.47;1.50;;;19.50;55.50;;;;;;10194549;29;20282;-81
2023/05/19 12:21:44;;;;;;;5.30;2.67;;;19.50;53.80;;;;;;10195583;29;20246;-81
2023/05/19 12:26:49;;;;;;;2.70;1.63;;;19.30;55.10;;;;;;10210124;29;20243;-81
2023/05/19 12:31:52;;;;;;;2.53;1.43;;;19.30;54.90;;;;;;10192930;29;20310;-82
2023/05/19 12:36:55;;;;;;;2.25;1.77;;;19.20;56.10;;;;;;10211416;29;20700;-81
2023/05/19 12:42:07;;;;;;;5.33;2.70;;;18.90;53.00;;;;;;10213609;29;20283;-81
2023/05/19 12:47:10;;;;;;;2.60;1.13;;;18.70;52.20;;;;;;10211923;29;20243;-82
2023/05/19 12:52:12;;;;;;;2.20;1.80;;;18.70;55.00;;;;;;10203761;29;20238;-84
2023/05/19 12:57:16;;;;;;;7.93;2.80;;;18.70;54.10;;;;;;10180259;29;20656;-81
2023/05/19 13:02:20;;;;;;;11.33;2.67;;;18.50;53.80;;;;;;10209217;29;20737;-81
2023/05/19 13:07:22;;;;;;;14.87;5.27;;;18.40;55.60;;;;;;10211076;29;20243;-81
2023/05/19 13:12:25;;;;;;;4.15;2.30;;;18.10;58.40;;;;;;10193027;29;20644;-81
2023/05/19 13:17:28;;;;;;;12.27;3.70;;;18.00;59.00;;;;;;10195750;29;20250;-81
2023/05/19 13:22:31;;;;;;;5.65;2.80;;;18.00;59.00;;;;;;10159881;29;20266;-81
2023/05/19 13:27:34;;;;;;;20.70;2.45;;;17.80;61.80;;;;;;10195186;29;20314;-81
2023/05/19 13:32:37;;;;;;;6.43;2.10;;;17.60;57.50;;;;;;10211014;29;20699;-81
2023/05/19 13:37:40;;;;;;;2.40;1.90;;;17.60;61.10;;;;;;10193701;29;20632;-81
2023/05/19 13:42:44;;;;;;;2.85;1.70;;;17.50;60.80;;;;;;10192657;29;20267;-81
2023/05/19 13:47:46;;;;;;;5.20;3.00;;;17.30;66.80;;;;;;10172677;29;20322;-81
2023/05/19 13:52:49;;;;;;;4.72;2.30;;;17.00;64.10;;;;;;10184084;29;20321;-83
2023/05/19 13:57:52;;;;;;;4.33;2.53;;;16.80;69.70;;;;;;10208256;29;20266;-82
2023/05/19 14:02:55;;;;;;;5.83;2.40;;;16.60;71.50;;;;;;10207316;29;20286;-82
2023/05/19 14:07:59;;;;;;;6.13;2.50;;;16.50;73.40;;;;;;10197591;29;20231;-80
2023/05/19 14:13:03;;;;;;;24.10;5.43;;;16.50;74.30;;;;;;10201290;29;20315;-83
2023/05/19 14:18:25;;;;;;;5.85;2.40;;;16.50;72.60;;;;;;10209440;29;20339;-82
2023/05/19 14:23:29;;;;;;;2.80;1.90;;;16.50;72.50;;;;;;10197665;29;20266;-82
2023/05/19 14:28:31;;;;;;;6.00;2.30;;;16.30;77.90;;;;;;10204684;29;20294;-83
2023/05/19 14:33:34;;;;;;;3.67;2.37;;;16.30;78.20;;;;;;10191724;29;20242;-83
2023/05/19 14:38:37;;;;;;;3.93;2.10;;;16.50;79.90;;;;;;10207180;29;20259;-83
2023/05/19 14:43:41;;;;;;;7.80;2.00;;;16.70;79.80;;;;;;10202789;29;20313;-82
2023/05/19 14:48:44;;;;;;;5.00;2.20;;;16.70;78.80;;;;;;10206720;29;20305;-82
2023/05/19 14:53:49;;;;;;;2.10;1.33;;;16.70;76.70;;;;;;10206589;29;20246;-82
2023/05/19 14:58:51;;;;;;;4.67;2.40;;;16.50;80.20;;;;;;10207143;29;20313;-82
2023/05/19 15:03:54;;;;;;;3.40;2.23;;;16.50;81.50;;;;;;10207220;29;20270;-82
2023/05/19 15:08:56;;;;;;;6.50;3.60;;;16.10;83.00;;;;;;10170579;29;20264;-84
2023/05/19 15:13:59;;;;;;;3.97;2.30;;;16.00;85.30;;;;;;10204079;29;20250;-84
2023/05/19 15:19:01;;;;;;;2.80;2.40;;;16.00;86.80;;;;;;10203291;29;20260;-84
2023/05/19 15:24:04;;;;;;;3.17;2.17;;;16.00;86.30;;;;;;10189008;29;20270;-82
2023/05/19 15:29:07;;;;;;;3.93;2.40;;;15.90;86.50;;;;;;10190792;29;20211;-82
2023/05/19 15:34:10;;;;;;;3.13;2.13;;;15.80;87.80;;;;;;10190927;29;20250;-82
2023/05/19 15:39:13;;;;;;;3.70;2.30;;;15.60;89.30;;;;;;10205235;29;20755;-82
2023/05/19 15:44:15;;;;;;;3.20;2.07;;;15.70;90.90;;;;;;10194010;29;20270;-83
2023/05/19 15:49:18;;;;;;;2.83;2.23;;;15.80;90.60;;;;;;10197681;29;20616;-83
2023/05/19 15:54:21;;;;;;;3.23;2.03;;;15.80;90.80;;;;;;10195822;29;20685;-83
2023/05/19 15:59:23;;;;;;;2.87;2.67;;;15.90;90.00;;;;;;10198164;29;20262;-83
2023/05/19 16:04:26;;;;;;;8.10;3.07;;;15.60;91.40;;;;;;10173104;29;20720;-81
2023/05/19 16:09:28;;;;;;;3.20;2.90;;;15.60;91.30;;;;;;10201075;29;20483;-82
2023/05/19 16:14:35;;;;;;;5.13;2.30;;;15.50;91.60;;;;;;10180492;29;20246;-82
2023/05/19 16:19:37;;;;;;;6.23;2.47;;;15.40;92.80;;;;;;10178907;29;20768;-81
2023/05/19 16:24:40;;;;;;;6.10;2.90;;;15.50;92.30;;;;;;10195408;29;20267;-83
2023/05/19 16:29:43;;;;;;;2.80;2.00;;;15.50;93.10;;;;;;10204171;29;20246;-82
2023/05/19 16:34:45;;;;;;;3.43;2.40;;;15.40;93.50;;;;;;10214129;29;20262;-84
2023/05/19 16:39:48;;;;;;;6.47;3.13;;;15.40;93.70;;;;;;10213699;29;20215;-89
2023/05/19 16:44:51;;;;;;;7.60;4.37;;;15.40;93.90;;;;;;10212396;29;20270;-89
2023/05/19 16:49:53;;;;;;;5.27;3.13;;;15.20;94.20;;;;;;10211752;29;20271;-89
2023/05/19 16:54:56;;;;;;;6.93;3.77;;;15.20;94.90;;;;;;10207963;29;20653;-88
2023/05/19 16:59:58;;;;;;;12.33;3.73;;;15.30;94.80;;;;;;10204729;29;20243;-89
2023/05/19 17:05:00;;;;;;;7.77;3.47;;;15.10;94.60;;;;;;10212480;29;20255;-89
2023/05/19 17:10:03;;;;;;;10.43;4.60;;;14.90;95.60;;;;;;10176630;29;20264;-89
2023/05/19 17:15:06;;;;;;;2.90;2.58;;;15.00;95.60;;;;;;10190942;29;20246;-90
2023/05/19 17:20:12;;;;;;;5.47;3.80;;;14.80;96.40;;;;;;10211781;29;20367;-88
2023/05/19 17:25:15;;;;;;;6.40;4.47;;;14.80;96.70;;;;;;10211490;29;20263;-88
2023/05/19 17:30:17;;;;;;;7.97;6.13;;;14.60;97.20;;;;;;10208903;29;20262;-90
2023/05/19 17:35:21;;;;;;;8.07;4.70;;;14.50;97.70;;;;;;10209047;29;20641;-87
2023/05/19 17:40:27;;;;;;;6.60;4.73;;;14.30;99.00;;;;;;10203200;23;20263;-93
2023/05/19 17:45:30;;;;;;;7.30;4.70;;;14.40;99.20;;;;;;10169157;29;20735;-92
2023/05/19 17:50:32;;;;;;;10.23;6.00;;;14.60;98.70;;;;;;10176943;29;20246;-92
2023/05/19 17:55:36;;;;;;;14.43;6.07;;;14.50;98.30;;;;;;10176279;29;20286;-94
2023/05/19 18:00:39;;;;;;;4.93;3.60;;;14.30;98.90;;;;;;10170055;29;20258;-93
2023/05/19 18:05:43;;;;;;;7.60;3.57;;;14.30;99.10;;;;;;10186668;29;20259;-93
2023/05/19 18:10:47;;;;;;;6.93;4.13;;;14.50;98.90;;;;;;10189263;29;20238;-93
2023/05/19 18:15:51;;;;;;;17.93;10.33;;;14.60;98.40;;;;;;10168864;29;20799;-92
2023/05/19 18:20:54;;;;;;;22.40;12.30;;;14.50;98.60;;;;;;10176963;29;20251;-92
2023/05/19 18:25:56;;;;;;;15.77;10.30;;;14.30;99.10;;;;;;10182482;29;21017;-93
2023/05/19 18:31:03;;;;;;;7.60;5.17;;;14.30;99.30;;;;;;10188190;29;20262;-93
2023/05/19 18:36:07;;;;;;;10.10;4.67;;;14.20;99.80;;;;;;10189978;29;20239;-93
2023/05/19 18:41:09;;;;;;;8.63;4.57;;;14.20;99.90;;;;;;10186333;29;20306;-93
2023/05/19 18:46:12;;;;;;;13.73;6.70;;;14.00;99.90;;;;;;10190847;29;20940;-91
2023/05/19 18:51:17;;;;;;;13.03;7.87;;;14.00;99.90;;;;;;10207487;29;20309;-91
2023/05/19 18:56:26;;;;;;;10.30;7.97;;;;;;;;;;10192563;29;20250;-91
2023/05/19 19:01:29;;;;;;;10.77;7.20;;;13.70;99.90;;;;;;10207807;29;20709;-90
2023/05/19 19:06:36;;;;;;;5.27;3.93;;;13.60;99.90;;;;;;10191679;29;20312;-91
2023/05/19 19:11:38;;;;;;;10.37;6.77;;;13.50;99.90;;;;;;10208499;29;20245;-90
2023/05/19 19:16:41;;;;;;;20.73;11.40;;;13.50;99.90;;;;;;10189967;29;20214;-90
2023/05/19 19:21:44;;;;;;;10.83;6.63;;;13.40;99.90;;;;;;10207361;29;20688;-91
2023/05/19 19:26:46;;;;;;;11.60;6.90;;;13.40;99.90;;;;;;10207687;29;20344;-91
2023/05/19 19:31:49;;;;;;;8.00;6.17;;;13.40;99.90;;;;;;10203506;29;20776;-90
2023/05/19 19:36:52;;;;;;;20.77;12.20;;;13.40;99.90;;;;;;10247530;29;20214;-90
2023/05/19 19:41:54;;;;;;;21.80;12.20;;;13.40;99.90;;;;;;10246638;29;20265;-89
2023/05/19 19:46:58;;;;;;;16.47;10.77;;;13.20;99.90;;;;;;10244649;29;20297;-88
2023/05/19 19:52:01;;;;;;;12.63;5.10;;;13.20;99.90;;;;;;10218843;29;20670;-88
2023/05/19 19:57:03;;;;;;;8.43;5.70;;;13.00;99.90;;;;;;10208247;29;20236;-92
2023/05/19 20:02:06;;;;;;;10.07;5.67;;;13.20;99.90;;;;;;10212380;29;20218;-91
2023/05/19 20:07:08;;;;;;;13.00;6.43;;;13.10;99.90;;;;;;10206662;29;20327;-89
2023/05/19 20:12:11;;;;;;;8.70;5.07;;;13.20;99.90;;;;;;10206342;29;20274;-91
2023/05/19 20:17:14;;;;;;;9.27;4.82;;;;;;;;;;9865355;29;9999988;-89
2023/05/19 20:22:16;;;;;;;9.87;4.30;;;12.40;99.90;;;;;;10184976;29;20313;-89
2023/05/19 20:27:19;;;;;;;12.73;5.27;;;12.60;99.90;;;;;;10203054;29;20317;-89
2023/05/19 20:32:21;;;;;;;10.13;5.37;;;12.90;99.90;;;;;;10190991;29;20313;-89
2023/05/19 20:37:24;;;;;;;6.50;4.63;;;13.10;99.90;;;;;;10211329;29;20270;-89
2023/05/19 20:42:27;;;;;;;6.70;4.63;;;13.30;99.90;;;;;;10211260;29;20668;-89
2023/05/19 20:47:29;;;;;;;13.00;4.90;;;13.50;99.90;;;;;;10195120;29;20314;-89
2023/05/19 20:52:32;;;;;;;5.70;4.67;;;13.70;99.90;;;;;;10213387;29;20227;-89
2023/05/19 20:57:35;;;;;;;7.17;5.07;;;13.70;99.90;;;;;;10210458;29;20282;-90
2023/05/19 21:02:37;;;;;;;8.20;4.60;;;13.80;99.90;;;;;;10209447;29;20333;-89
2023/05/19 21:07:40;;;;;;;10.60;5.10;;;13.60;99.90;;;;;;10208864;29;20270;-89
2023/05/19 21:12:42;;;;;;;11.07;5.43;;;13.70;99.90;;;;;;10210220;29;20239;-89
2023/05/19 21:17:45;;;;;;;5.93;4.27;;;13.60;99.90;;;;;;10192713;29;20254;-89
2023/05/19 21:22:48;;;;;;;6.27;4.43;;;13.70;99.90;;;;;;10208738;29;20243;-89
2023/05/19 21:27:50;;;;;;;13.20;5.40;;;13.50;99.90;;;;;;10209230;29;20660;-89
2023/05/19 21:32:53;;;;;;;8.13;3.88;;;13.50;99.90;;;;;;10225560;29;20246;-88
2023/05/19 21:37:56;;;;;;;7.90;5.00;;;13.50;99.90;;;;;;10221773;29;20250;-90
2023/05/19 21:42:58;;;;;;;6.23;4.60;;;13.50;99.90;;;;;;10207704;29;20290;-87
2023/05/19 21:48:01;;;;;;;4.88;4.38;;;13.60;99.90;;;;;;10191313;29;20266;-87
2023/05/19 21:53:04;;;;;;;9.32;5.40;;;13.60;99.90;;;;;;10206741;29;20243;-87
2023/05/19 21:58:07;;;;;;;7.83;4.93;;;13.60;99.90;;;;;;10180488;29;20243;-92
2023/05/19 22:03:11;;;;;;;10.07;5.50;;;13.60;99.90;;;;;;10192232;29;20247;-92
2023/05/19 22:08:13;;;;;;;11.40;6.17;;;13.70;99.90;;;;;;10208394;29;20266;-91
2023/05/19 22:13:16;;;;;;;10.50;6.10;;;13.50;99.90;;;;;;10208154;29;20314;-94
2023/05/19 22:18:19;;;;;;;9.73;6.35;;;13.50;99.90;;;;;;10191843;29;20274;-93
2023/05/19 22:23:22;;;;;;;8.83;6.43;;;13.60;99.90;;;;;;10191141;29;20653;-93
2023/05/19 22:28:24;;;;;;;9.85;5.57;;;13.60;99.90;;;;;;10207121;29;20329;-93
2023/05/19 22:33:27;;;;;;;11.45;6.90;;;13.70;99.90;;;;;;10205702;29;20255;-92
2023/05/19 22:38:29;;;;;;;15.27;8.33;;;13.70;99.90;;;;;;10189570;29;20239;-89
2023/05/19 22:43:32;;;;;;;9.93;6.10;;;13.50;99.90;;;;;;10205231;29;20341;-89
2023/05/19 22:48:34;;;;;;;8.27;5.43;;;13.40;99.90;;;;;;10246632;29;20253;-88
2023/05/19 22:53:43;;;;;;;8.20;6.30;;;13.40;99.90;;;;;;10203104;29;20242;-88
2023/05/19 22:58:45;;;;;;;11.53;6.43;;;13.40;99.90;;;;;;10201436;29;20291;-89
2023/05/19 23:03:49;;;;;;;9.17;4.60;;;13.20;99.90;;;;;;10207353;29;20223;-90
2023/05/19 23:09:02;;;;;;;15.40;6.13;;;13.20;99.90;;;;;;10207806;29;20318;-90
2023/05/19 23:14:05;;;;;;;8.37;6.23;;;13.40;99.90;;;;;;10207726;29;20664;-90
2023/05/19 23:19:08;;;;;;;9.03;5.77;;;13.30;99.90;;;;;;10206608;29;20672;-90
2023/05/19 23:24:11;;;;;;;7.73;5.17;;;13.40;99.90;;;;;;10206775;29;20234;-90
2023/05/19 23:29:13;;;;;;;13.23;6.73;;;13.50;99.90;;;;;;10209960;29;20914;-90
2023/05/19 23:34:16;;;;;;;4.18;3.65;;;13.50;99.90;;;;;;10206510;29;20247;-90
2023/05/19 23:39:18;;;;;;;15.43;7.57;;;13.50;99.90;;;;;;10206894;29;20313;-90
2023/05/19 23:44:21;;;;;;;14.27;8.03;;;13.50;99.90;;;;;;10206664;29;20261;-90
2023/05/19 23:49:23;;;;;;;10.05;6.90;;;13.50;99.90;;;;;;10207322;29;20243;-90
2023/05/19 23:54:26;;;;;;;11.32;6.60;;;13.40;99.90;;;;;;10207003;29;20262;-89
2023/05/19 23:59:28;;;;;;;10.93;7.30;;;13.20;99.90;;;;;;10205584;29;20294;-90
